Terminal Aerodrome Forecast
Issued by NWS

Home | Current Version | Previous Version | Text Only | Print | Product List | Glossary On
Versions: 1 2 3 4 5 6 7 8 9 10 11 12 13 14 15 16 17 18 19 20 21 22 23 24 25 26 27 28
000
FTUS45 KBOI 270155 AAA
TAFBKE
TAF AMD
KBKE 270155Z 2702/2724 33011G23KT P6SM VCTS FEW050CB BKN070 OVC110
     FM270330 30008KT P6SM BKN110
     FM270900 VRB03KT P6SM BKN200
     FM271700 33008KT P6SM BKN080 PROB30 2720/2724 32011G22KT P6SM
      -SHRA BKN060=

USA.gov is the U.S. government's official web portal to all federal, state and local government web resources and services.